Portada
METAR-TAF:

METAR-TAF

Aeroports :

Cascais, Portugal

latitud: 38-43-32N, longitud: 009-21-19W, altitud: 99 m

Observació

L'informe es va fer fa 19 minuts, a les 17:00 UTC
Vent 10 kt del Nord
Temperatura 33°C
Humitat 39%
Pressió 1015 hPa
Visibilitat 10 km o més
sense núvols per sota de 1500 mi sense presència de cumulonimbus.

METAR: LPCS 181700Z 35010KT CAVOK 33/17 Q1015

Hora: 18:19 (17:19 UTC)


TAF: manca

Observacions i pronòstics meteorològics de més de 4000 aeroports (METAR i TAF).

Les estacions disponibles són els punts grocs i vermells al mapa.

Posi el ratolí al punt desitjat per veure el nom de l'estació.

Feu clic per veure les observacions i els pronòstics meteorològics.

Per canviar el mapa: feu clic els botons verds amb una creu de color negre per apropar; al botó verd amb un guió per allunyar la imatge; o en les fletxes verdes per a mapes adjacents.


METAR-TAF: